createdAt,value
2019-01-20T00:01:04.302Z,70.49
2019-01-20T00:05:10.698Z,70.86
2019-01-20T00:09:15.647Z,70.77
2019-01-20T00:13:21.001Z,71.46
2019-01-20T00:17:26.048Z,72.37
2019-01-20T00:21:31.218Z,72.95
2019-01-20T00:25:36.618Z,73.08
2019-01-20T00:29:41.643Z,71.60
2019-01-20T00:33:46.944Z,70.99
2019-01-20T00:37:52.078Z,70.82
2019-01-20T00:41:57.469Z,71.54
2019-01-20T00:46:02.590Z,72.56
2019-01-20T00:50:08.779Z,73.16
2019-01-20T00:54:14.092Z,72.63
2019-01-20T00:58:19.228Z,71.80
2019-01-20T01:02:24.560Z,71.18
2019-01-20T01:06:29.648Z,70.65
2019-01-20T01:10:34.779Z,70.41
2019-01-20T01:14:39.870Z,70.15
2019-01-20T01:18:44.900Z,70.02
2019-01-20T01:22:49.967Z,69.78
2019-01-20T01:26:55.080Z,70.10
2019-01-20T01:31:00.154Z,69.92
2019-01-20T01:35:05.826Z,69.63
2019-01-20T01:39:10.892Z,69.53
2019-01-20T01:43:15.905Z,69.84
2019-01-20T01:47:20.943Z,70.29
2019-01-20T01:51:26.093Z,71.07
2019-01-20T01:55:31.156Z,70.14
2019-01-20T01:59:36.242Z,69.50
2019-01-20T02:03:41.364Z,68.59
2019-01-20T02:07:46.583Z,68.36
2019-01-20T02:11:51.735Z,68.29
2019-01-20T02:15:56.788Z,68.65
2019-01-20T02:20:01.882Z,68.22
2019-01-20T02:24:07.023Z,68.43
2019-01-20T02:28:12.165Z,68.08
2019-01-20T02:32:17.158Z,67.96
2019-01-20T02:36:22.254Z,67.83
2019-01-20T02:40:27.646Z,67.63
2019-01-20T02:44:32.670Z,67.54
2019-01-20T02:48:37.703Z,67.54
2019-01-20T02:52:42.802Z,67.54
2019-01-20T02:56:47.847Z,67.59
2019-01-20T03:00:52.858Z,67.45
2019-01-20T03:04:58.032Z,67.49
2019-01-20T03:09:04.730Z,67.39
2019-01-20T03:13:09.956Z,67.55
2019-01-20T03:17:15.007Z,67.48
2019-01-20T03:21:19.973Z,67.89
2019-01-20T03:25:26.126Z,67.42
2019-01-20T03:29:31.206Z,67.21
2019-01-20T03:33:36.511Z,67.06
2019-01-20T03:37:41.574Z,67.81
2019-01-20T03:41:46.681Z,67.89
2019-01-20T03:45:51.748Z,67.92
2019-01-20T03:49:56.853Z,67.80
2019-01-20T03:54:01.972Z,67.80
2019-01-20T03:58:07.038Z,67.23
2019-01-20T04:02:12.048Z,67.39
2019-01-20T04:06:17.032Z,67.23
2019-01-20T04:10:22.068Z,67.28
2019-01-20T04:14:27.222Z,67.23
2019-01-20T04:18:32.190Z,67.39
2019-01-20T04:22:37.281Z,67.71
2019-01-20T04:26:42.275Z,67.51
2019-01-20T04:30:47.599Z,67.99
2019-01-20T04:34:52.682Z,68.07
2019-01-20T04:38:57.790Z,68.11
2019-01-20T04:43:02.840Z,67.47
2019-01-20T04:47:07.862Z,67.13
2019-01-20T04:51:13.042Z,67.26
2019-01-20T04:55:19.057Z,66.76
2019-01-20T04:59:24.054Z,66.98
2019-01-20T05:03:29.016Z,67.17
2019-01-20T05:07:34.106Z,67.83
2019-01-20T05:11:39.209Z,67.93
2019-01-20T05:15:44.297Z,68.20
2019-01-20T05:19:49.264Z,68.17
2019-01-20T05:23:54.564Z,68.49
2019-01-20T05:27:59.607Z,68.11
2019-01-20T05:32:04.709Z,68.45
2019-01-20T05:36:09.789Z,69.08
2019-01-20T05:40:17.245Z,67.96
2019-01-20T05:44:22.654Z,67.61
2019-01-20T05:48:27.789Z,67.72
2019-01-20T05:52:32.820Z,67.52
2019-01-20T05:56:37.869Z,68.86
2019-01-20T06:00:42.904Z,70.22
2019-01-20T06:04:47.995Z,70.02
2019-01-20T06:08:53.128Z,70.67
2019-01-20T06:12:58.176Z,71.23
2019-01-20T06:17:03.281Z,71.32
2019-01-20T06:21:08.410Z,72.20
2019-01-20T06:25:13.635Z,72.38
2019-01-20T06:29:19.080Z,71.13
2019-01-20T06:33:24.117Z,71.78
2019-01-20T06:37:29.185Z,71.58
2019-01-20T06:41:34.228Z,70.86
2019-01-20T06:45:39.324Z,70.54
2019-01-20T06:49:44.251Z,70.08
2019-01-20T06:53:49.253Z,69.49
2019-01-20T06:57:54.335Z,69.83
2019-01-20T07:01:59.868Z,69.40
2019-01-20T07:06:05.287Z,68.94
2019-01-20T07:10:10.911Z,67.99
2019-01-20T07:14:15.936Z,68.28
2019-01-20T07:18:21.070Z,68.36
2019-01-20T07:22:26.147Z,67.87
2019-01-20T07:26:31.279Z,67.99
2019-01-20T07:30:37.558Z,66.91
2019-01-20T07:34:42.611Z,67.31
2019-01-20T07:38:47.713Z,67.17
2019-01-20T07:42:52.787Z,67.33
2019-01-20T07:46:57.807Z,66.42
2019-01-20T07:51:03.076Z,67.10
2019-01-20T07:55:08.815Z,67.12
2019-01-20T07:59:14.719Z,66.71
2019-01-20T08:03:20.080Z,65.96
2019-01-20T08:07:27.222Z,65.84
2019-01-20T08:11:32.217Z,65.46
2019-01-20T08:15:37.369Z,64.92
2019-01-20T08:19:42.472Z,64.68
2019-01-20T08:23:47.411Z,65.05
2019-01-20T08:27:52.564Z,63.88
2019-01-20T08:31:57.662Z,63.15
2019-01-20T08:36:02.772Z,63.91
2019-01-20T08:40:11.097Z,64.38
2019-01-20T08:44:15.998Z,64.36
2019-01-20T08:48:22.067Z,62.53
2019-01-20T08:52:27.035Z,63.39
2019-01-20T08:56:32.136Z,63.54
2019-01-20T09:00:37.262Z,63.75
2019-01-20T09:04:42.273Z,63.58
2019-01-20T09:08:47.239Z,62.62
2019-01-20T09:12:52.425Z,61.92
2019-01-20T09:16:57.545Z,64.46
2019-01-20T09:21:02.611Z,62.03
2019-01-20T09:25:08.605Z,62.03
2019-01-20T09:29:13.616Z,61.51
2019-01-20T09:33:24.525Z,63.90
2019-01-20T09:37:25.525Z,65.53
2019-01-20T09:41:30.853Z,61.98
2019-01-20T09:45:36.594Z,60.22
2019-01-20T09:49:41.729Z,61.11
2019-01-20T09:53:47.304Z,59.17
2019-01-20T09:57:52.441Z,57.67
2019-01-20T10:01:57.599Z,60.35
2019-01-20T10:06:02.657Z,56.54
2019-01-20T10:10:09.622Z,58.55
2019-01-20T10:14:14.541Z,59.16
2019-01-20T10:18:19.849Z,57.22
2019-01-20T10:22:24.889Z,54.31
2019-01-20T10:26:29.946Z,55.06
2019-01-20T10:30:36.339Z,56.15
2019-01-20T10:34:41.563Z,55.50
2019-01-20T10:38:46.547Z,56.70
2019-01-20T10:42:51.609Z,55.92
2019-01-20T10:46:56.644Z,57.17
2019-01-20T10:51:01.771Z,56.76
2019-01-20T10:55:07.207Z,54.26
2019-01-20T10:59:12.184Z,52.79
2019-01-20T11:03:17.274Z,53.60
2019-01-20T11:07:22.176Z,53.49
2019-01-20T11:11:27.208Z,55.68
2019-01-20T11:15:32.208Z,53.13
2019-01-20T11:19:37.248Z,55.34
2019-01-20T11:23:42.321Z,54.09
2019-01-20T11:27:47.363Z,53.30
2019-01-20T11:31:52.395Z,53.53
2019-01-20T11:35:57.395Z,54.19
2019-01-20T11:40:02.447Z,53.74
2019-01-20T11:44:07.491Z,52.35
2019-01-20T11:48:12.540Z,51.05
2019-01-20T11:52:17.587Z,51.40
2019-01-20T11:56:22.500Z,51.03
2019-01-20T12:00:30.045Z,51.47
2019-01-20T12:04:35.147Z,51.56
2019-01-20T12:08:40.210Z,50.73
2019-01-20T12:12:47.837Z,50.06
2019-01-20T12:16:53.025Z,48.28
2019-01-20T12:20:59.603Z,50.59
2019-01-20T12:25:05.367Z,48.54
2019-01-20T12:29:10.481Z,51.10
2019-01-20T12:33:15.616Z,47.20
2019-01-20T12:37:21.081Z,50.63
2019-01-20T12:41:26.110Z,51.02
2019-01-20T12:45:31.178Z,50.76
2019-01-20T12:49:36.190Z,49.46
2019-01-20T12:53:41.284Z,49.95
2019-01-20T12:57:46.467Z,48.95
2019-01-20T13:01:51.474Z,48.56
2019-01-20T13:05:56.601Z,51.09
2019-01-20T13:10:01.719Z,50.38
2019-01-20T13:14:07.778Z,48.61
2019-01-20T13:18:12.889Z,49.86
2019-01-20T13:22:17.921Z,49.79
2019-01-20T13:26:22.943Z,50.86
2019-01-20T13:30:29.265Z,49.22
2019-01-20T13:34:34.377Z,48.65
2019-01-20T13:38:39.510Z,48.77
2019-01-20T13:42:44.903Z,48.44
2019-01-20T13:46:49.951Z,47.62
2019-01-20T13:50:55.220Z,47.30
2019-01-20T13:55:00.292Z,47.84
2019-01-20T13:59:05.460Z,47.43
2019-01-20T14:03:10.689Z,46.37
2019-01-20T14:07:15.706Z,48.04
2019-01-20T14:11:20.723Z,47.01
2019-01-20T14:15:25.779Z,44.86
2019-01-20T14:19:30.804Z,45.68
2019-01-20T14:23:35.904Z,46.90
2019-01-20T14:27:40.937Z,46.77
2019-01-20T14:31:46.069Z,46.28
2019-01-20T14:35:51.132Z,45.60
2019-01-20T14:39:56.219Z,46.32
2019-01-20T14:44:01.520Z,46.20
2019-01-20T14:48:06.598Z,46.10
2019-01-20T14:52:12.606Z,43.84
2019-01-20T14:56:19.131Z,45.36
2019-01-20T15:00:30.386Z,43.50
2019-01-20T15:04:42.952Z,44.33
2019-01-20T15:08:48.305Z,43.23
2019-01-20T15:12:53.971Z,43.17
2019-01-20T15:17:01.057Z,44.15
2019-01-20T15:21:16.073Z,44.27
2019-01-20T15:25:23.976Z,41.31
2019-01-20T15:29:40.266Z,42.53
2019-01-20T15:33:48.851Z,42.38
2019-01-20T15:38:23.800Z,44.69
2019-01-20T15:42:29.520Z,44.84
2019-01-20T15:51:30.676Z,44.21
2019-01-20T15:55:38.663Z,47.36
2019-01-20T16:00:13.156Z,50.12
2019-01-20T16:04:52.785Z,54.02
2019-01-20T16:09:04.186Z,56.07
2019-01-20T16:17:59.402Z,56.68
2019-01-20T16:27:30.925Z,57.78
2019-01-20T16:31:39.765Z,57.84
2019-01-20T16:35:42.908Z,57.92
2019-01-20T16:39:48.026Z,58.12
2019-01-20T16:43:53.102Z,58.33
2019-01-20T16:47:58.227Z,59.55
2019-01-20T16:52:05.695Z,60.51
2019-01-20T16:56:17.432Z,59.52
2019-01-20T17:00:30.102Z,59.90
2019-01-20T17:04:35.728Z,60.29
2019-01-20T17:08:40.848Z,60.56
2019-01-20T17:12:46.248Z,60.95
2019-01-20T17:16:51.412Z,61.10
2019-01-20T17:20:56.601Z,61.47
2019-01-20T17:25:01.624Z,61.20
2019-01-20T17:29:06.758Z,62.11
2019-01-20T17:33:13.042Z,61.59
2019-01-20T17:37:18.115Z,61.69
2019-01-20T17:41:23.504Z,62.62
2019-01-20T17:45:30.745Z,63.13
2019-01-20T17:49:35.908Z,63.87
2019-01-20T17:53:40.880Z,63.31
2019-01-20T17:57:46.136Z,63.24
2019-01-20T18:01:51.262Z,62.92
2019-01-20T18:05:56.597Z,63.41
2019-01-20T18:10:01.800Z,64.15
2019-01-20T18:14:07.908Z,65.28
2019-01-20T18:18:13.128Z,65.09
2019-01-20T18:22:18.107Z,64.33
2019-01-20T18:26:23.149Z,64.36
2019-01-20T18:30:29.361Z,63.51
2019-01-20T18:34:34.390Z,65.16
2019-01-20T18:38:39.891Z,65.53
2019-01-20T18:42:44.988Z,65.33
2019-01-20T18:46:50.107Z,66.70
2019-01-20T18:50:55.140Z,67.12
2019-01-20T18:55:00.569Z,67.11
2019-01-20T18:59:05.703Z,67.59
2019-01-20T19:03:10.960Z,68.29
2019-01-20T19:07:16.088Z,68.23
2019-01-20T19:11:21.312Z,67.94
2019-01-20T19:15:26.445Z,68.41
2019-01-20T19:19:31.507Z,68.28
2019-01-20T19:23:36.667Z,68.64
2019-01-20T19:27:41.692Z,69.02
2019-01-20T19:31:46.996Z,68.71
2019-01-20T19:35:52.051Z,68.99
2019-01-20T19:39:57.147Z,68.52
2019-01-20T19:44:02.150Z,68.76
2019-01-20T19:48:12.993Z,70.56
2019-01-20T19:52:14.043Z,70.10
2019-01-20T19:56:19.152Z,70.69
2019-01-20T20:00:24.979Z,70.18
2019-01-20T20:04:30.040Z,69.99
2019-01-20T20:08:35.422Z,69.80
2019-01-20T20:12:41.337Z,70.03
2019-01-20T20:16:47.490Z,70.94
2019-01-20T20:20:52.587Z,71.29
2019-01-20T20:24:57.606Z,71.94
2019-01-20T20:29:02.918Z,72.41
2019-01-20T20:33:08.195Z,72.86
2019-01-20T20:37:13.344Z,73.01
2019-01-20T20:41:18.420Z,72.60
2019-01-20T20:45:24.119Z,72.62
2019-01-20T20:49:29.461Z,72.62
2019-01-20T20:53:34.587Z,72.79
2019-01-20T20:57:39.681Z,73.29
2019-01-20T21:01:44.819Z,73.64
2019-01-20T21:05:50.010Z,73.87
2019-01-20T21:09:56.476Z,73.97
2019-01-20T21:14:01.675Z,73.70
2019-01-20T21:18:06.892Z,74.04
2019-01-20T21:22:12.042Z,73.97
2019-01-20T21:26:17.085Z,74.23
2019-01-20T21:30:24.029Z,74.03
2019-01-20T21:34:29.200Z,73.45
2019-01-20T21:38:34.367Z,73.82
2019-01-20T21:42:39.511Z,74.18
2019-01-20T21:46:45.373Z,74.55
2019-01-20T21:50:50.859Z,74.79
2019-01-20T21:54:56.008Z,74.01
2019-01-20T21:59:02.429Z,73.57
2019-01-20T22:03:07.490Z,74.49
2019-01-20T22:07:12.607Z,74.09
2019-01-20T22:11:17.787Z,73.98
2019-01-20T22:15:22.948Z,73.32
2019-01-20T22:19:28.217Z,73.91
2019-01-20T22:23:33.270Z,74.21
2019-01-20T22:27:38.378Z,73.81
2019-01-20T22:31:43.543Z,73.83
2019-01-20T22:35:48.695Z,74.19
2019-01-20T22:39:53.842Z,74.14
2019-01-20T22:43:59.034Z,74.32
2019-01-20T22:48:04.098Z,73.82
2019-01-20T22:52:10.213Z,74.45
2019-01-20T22:56:15.346Z,74.86
2019-01-20T23:01:19.330Z,74.67
2019-01-20T23:05:24.409Z,73.86
2019-01-20T23:09:29.583Z,73.97
2019-01-20T23:13:34.705Z,75.14
2019-01-20T23:17:39.780Z,74.86
2019-01-20T23:21:44.950Z,74.60
2019-01-20T23:25:49.980Z,74.51
2019-01-20T23:29:55.500Z,74.41
2019-01-20T23:34:00.559Z,74.10
2019-01-20T23:38:05.707Z,73.89
2019-01-20T23:42:10.894Z,73.84
2019-01-20T23:46:15.917Z,73.36
2019-01-20T23:50:21.055Z,73.81
2019-01-20T23:54:26.186Z,74.01
2019-01-20T23:58:31.315Z,74.07
